INFORMACIÓN METAR y TAF
METAR FOR EFTU
ADDS - METARS form results

(1603 UTC 30 May 2020)
Data provider http://aviationweather.gov/metar/data/
 
METAR text: EFTU 301550Z AUTO 06010KT 360V120 CAVOK 20/03 Q1026
Conditions at: EFTU (TURKU/ABO , FI) observed 1550 UTC 30 May 2020
Temperature: 20.0°C (68°F)
Dewpoint: 3.0°C (37°F) [RH = 32%]
Pressure (altimeter): 30.30 inches Hg (1026.0 mb)
Winds: from the ENE (60 degrees) at 12 MPH (10 knots; 5.1 m/s)
Visibility: 6 or more miles (10+ km)
Ceiling: ceiling and visibility are OK
Clouds: unknown
Weather: no significant weather observed at this time

METAR text: EFTU 301520Z AUTO 05010KT 010V080 CAVOK 20/03 Q1026
Conditions at: EFTU (TURKU/ABO , FI) observed 1520 UTC 30 May 2020
Temperature: 20.0°C (68°F)
Dewpoint: 3.0°C (37°F) [RH = 32%]
Pressure (altimeter): 30.30 inches Hg (1026.0 mb)
Winds: from the NE (50 degrees) at 12 MPH (10 knots; 5.1 m/s)
Visibility: 6 or more miles (10+ km)
Ceiling: ceiling and visibility are OK
Clouds: unknown
Weather: no significant weather observed at this time

Forecast for: EFTU (TURKU/ABO , FI)
Text: TAF EFTU 301427Z 3015/3115 05012KT CAVOK
Forecast period: 1500 UTC 30 May 2020 to 1500 UTC 31 May 2020
Forecast type: FROM: standard forecast or significant change
Winds: from the NE (50 degrees) at 14 MPH (12 knots; 6.2 m/s)
Visibility: 6 or more miles 10+ km)
Ceiling: unknown
Clouds: missing
Weather: NSW  (no significant weather)

 MAPA DE AEROPUERTO

 INFORMACIÓN DE PISTA
Pista 08 Longitud 8202 ft Ancho 197 ft
Elevación 132 ft Umbral desplazado 0 ft Rumbo de pista 85
Pista 26 Longitud 8202 ft Ancho 197 ft
Elevación 141 ft Umbral desplazado 0 ft Rumbo de pista 265

 FRECUANCIAS DEL AEROPUERTO
Tipo ATIS Nombre ATIS Frecuencia 130.05 MHZ
Tipo TWR Nombre TWR Frecuencia 118.3 MHZ

 RADIO AYUDAS DEL AEROPUERTO
Tipo NDB Nombre Lieto Frecuencia 361 KHZ
Tipo VOR-DME Nombre Rusko Frecuencia 115500 KHZ



Powered by Virtual Airlines Manager [v2.6.2]